Time;durP1;ratioP1;P1;durP2;ratioP2;P2;SDS_P1;SDS_P2;PMS_P1;PMS_P2;Temp;Humidity;BMP_temperature;BMP_pressure;BME280_temperature;BME280_humidity;BME280_pressure;Samples;Min_cycle;Max_cycle;Signal;HPM_P1;HPM_P2
2022/06/22 00:01:59;;;;;;;8.17;7.67;;;23.20;99.90;;;;;;5046193;28;20548;-81
2022/06/22 00:04:30;;;;;;;8.27;7.47;;;23.10;99.90;;;;;;5046223;28;20985;-81
2022/06/22 00:06:59;;;;;;;8.77;8.03;;;23.10;99.90;;;;;;5046152;28;20511;-80
2022/06/22 00:09:29;;;;;;;9.07;8.40;;;23.10;99.90;;;;;;5045707;28;20471;-81
2022/06/22 00:11:59;;;;;;;9.60;8.20;;;23.10;99.90;;;;;;5045978;28;20449;-81
2022/06/22 00:14:29;;;;;;;7.90;7.40;;;23.00;99.90;;;;;;5046074;28;20449;-81
2022/06/22 00:16:57;;;;;;;8.83;8.30;;;23.00;99.90;;;;;;5046434;28;20942;-81
2022/06/22 00:19:30;;;;;;;8.47;7.53;;;23.00;99.90;;;;;;5045367;28;21021;-81
2022/06/22 00:21:57;;;;;;;8.90;8.30;;;23.00;99.90;;;;;;5046407;28;20495;-81
2022/06/22 00:24:40;;;;;;;8.77;8.20;;;23.00;99.90;;;;;;5045576;28;20449;-80
2022/06/22 00:27:20;;;;;;;10.07;9.17;;;22.90;99.90;;;;;;5045823;28;20455;-81
2022/06/22 00:30:06;;;;;;;9.00;8.37;;;22.90;99.90;;;;;;5045123;28;20473;-82
2022/06/22 00:32:33;;;;;;;8.00;7.50;;;22.80;99.90;;;;;;5045741;28;20538;-81
2022/06/22 00:35:42;;;;;;;9.33;8.63;;;22.70;99.90;;;;;;5045288;28;20449;-80
2022/06/22 00:38:14;;;;;;;9.37;8.67;;;22.70;99.90;;;;;;5045666;28;21016;-81
2022/06/22 00:40:41;;;;;;;10.53;9.50;;;22.60;99.90;;;;;;5044504;28;20449;-81
2022/06/22 00:43:14;;;;;;;10.37;9.47;;;22.50;99.90;;;;;;5045316;28;20488;-81
2022/06/22 00:45:41;;;;;;;8.70;8.20;;;22.40;99.90;;;;;;5045421;28;20456;-81
2022/06/22 00:48:15;;;;;;;12.37;10.13;;;22.40;99.90;;;;;;5045318;28;20473;-81
2022/06/22 00:50:45;;;;;;;10.07;9.20;;;22.30;99.90;;;;;;5045079;28;20543;-80
2022/06/22 00:53:18;;;;;;;8.70;8.10;;;22.20;99.90;;;;;;5045162;28;20472;-81
2022/06/22 00:55:54;;;;;;;9.90;8.90;;;22.20;99.90;;;;;;5044563;28;20987;-80
2022/06/22 00:58:28;;;;;;;9.07;8.37;;;22.20;99.90;;;;;;5045004;28;20466;-81
2022/06/22 01:01:00;;;;;;;10.33;9.33;;;22.20;99.90;;;;;;5044959;28;20448;-81
2022/06/22 01:03:35;;;;;;;9.50;8.60;;;22.30;99.90;;;;;;5045860;28;20499;-80
2022/06/22 01:06:09;;;;;;;9.70;9.00;;;22.30;99.90;;;;;;5043106;28;20460;-81
2022/06/22 01:08:43;;;;;;;11.63;10.53;;;22.20;99.90;;;;;;5039210;28;20476;-81
2022/06/22 01:14:02;;;;;;;10.50;9.43;;;22.20;99.90;;;;;;5039785;28;20463;-80
2022/06/22 01:16:35;;;;;;;10.50;9.70;;;22.10;99.90;;;;;;5040211;28;20448;-81
2022/06/22 01:19:17;;;;;;;10.43;9.53;;;22.20;99.90;;;;;;5039826;28;20499;-81
2022/06/22 01:21:48;;;;;;;9.77;9.17;;;22.20;99.90;;;;;;5043002;28;20452;-81
2022/06/22 01:24:25;;;;;;;9.30;8.33;;;22.20;99.90;;;;;;5045519;28;20456;-81
2022/06/22 01:27:21;;;;;;;11.00;10.20;;;22.20;99.90;;;;;;5045100;28;20461;-81
2022/06/22 01:29:50;;;;;;;11.87;10.70;;;22.00;99.90;;;;;;5044502;28;20468;-81
2022/06/22 01:32:23;;;;;;;12.67;11.70;;;21.90;99.90;;;;;;5044462;28;20462;-80
2022/06/22 01:34:51;;;;;;;10.00;9.20;;;21.70;99.90;;;;;;5044333;28;20464;-81
2022/06/22 01:37:22;;;;;;;10.97;10.03;;;21.40;99.90;;;;;;5044697;28;20486;-81
2022/06/22 01:39:49;;;;;;;10.63;9.73;;;21.40;99.90;;;;;;5044250;28;20482;-81
2022/06/22 01:42:25;;;;;;;10.37;9.63;;;21.40;99.90;;;;;;5043937;28;20486;-81
2022/06/22 01:44:57;;;;;;;10.90;9.03;;;21.50;99.90;;;;;;5044704;28;20461;-81
2022/06/22 01:47:29;;;;;;;9.40;8.80;;;21.60;99.90;;;;;;5044143;28;20474;-80
2022/06/22 01:50:07;;;;;;;10.53;9.73;;;21.70;99.90;;;;;;5044550;28;20488;-80
2022/06/22 01:52:45;;;;;;;10.03;9.27;;;21.40;99.90;;;;;;5044062;28;20454;-81
2022/06/22 01:55:18;;;;;;;9.93;9.20;;;21.30;99.90;;;;;;5043797;28;20496;-80
2022/06/22 01:58:00;;;;;;;11.20;10.30;;;21.20;99.90;;;;;;5044619;28;20456;-81
2022/06/22 02:00:27;;;;;;;10.50;9.60;;;21.20;99.90;;;;;;5044498;28;20455;-81
2022/06/22 02:02:57;;;;;;;10.00;9.30;;;21.20;99.90;;;;;;5044069;28;20512;-81
2022/06/22 02:05:29;;;;;;;10.60;9.90;;;21.30;99.90;;;;;;5039791;28;20468;-81
2022/06/22 02:08:05;;;;;;;9.50;9.00;;;21.50;99.90;;;;;;5039138;28;20816;-81
2022/06/22 02:10:42;;;;;;;10.17;9.30;;;21.50;99.90;;;;;;5041072;28;20524;-80
2022/06/22 02:13:25;;;;;;;10.50;9.40;;;21.70;99.90;;;;;;5043527;28;20453;-81
2022/06/22 02:15:57;;;;;;;10.30;9.40;;;21.70;99.90;;;;;;5044087;28;20462;-80
2022/06/22 02:18:30;;;;;;;10.83;10.00;;;21.50;99.90;;;;;;5043773;28;20477;-81
2022/06/22 02:21:00;;;;;;;11.40;10.23;;;21.40;99.90;;;;;;5044016;28;20450;-81
2022/06/22 02:23:30;;;;;;;9.77;9.00;;;21.40;99.90;;;;;;5043548;28;20479;-81
2022/06/22 02:26:09;;;;;;;10.43;9.60;;;21.50;99.90;;;;;;5044076;28;20443;-81
2022/06/22 02:28:37;;;;;;;9.33;8.50;;;21.70;99.90;;;;;;5024280;28;20471;-81
2022/06/22 02:31:07;;;;;;;11.37;10.33;;;21.70;99.90;;;;;;5023819;28;20456;-81
2022/06/22 02:33:36;;;;;;;10.70;10.00;;;21.50;99.90;;;;;;5043331;28;20456;-81
2022/06/22 02:36:04;;;;;;;11.43;10.60;;;21.50;99.90;;;;;;5043552;28;20948;-81
2022/06/22 02:38:31;;;;;;;11.20;10.10;;;21.40;99.90;;;;;;5043438;28;20484;-81
2022/06/22 02:46:35;;;;;;;10.33;9.53;;;21.70;99.90;;;;;;5023892;28;20994;-79
2022/06/22 02:49:07;;;;;;;11.27;10.57;;;21.70;99.90;;;;;;5038730;28;20472;-81
2022/06/22 02:51:38;;;;;;;12.07;11.07;;;21.70;99.90;;;;;;5042091;28;20463;-81
2022/06/22 02:54:07;;;;;;;12.23;11.20;;;21.70;99.90;;;;;;5024078;28;20446;-81
2022/06/22 02:56:39;;;;;;;14.20;11.73;;;21.70;99.90;;;;;;5024640;28;20456;-81
2022/06/22 02:59:09;;;;;;;10.60;9.90;;;21.70;99.90;;;;;;5043400;28;20471;-81
2022/06/22 03:01:39;;;;;;;10.03;9.33;;;21.60;99.90;;;;;;5043539;28;20458;-81
2022/06/22 03:04:11;;;;;;;10.50;9.80;;;21.60;99.90;;;;;;5043296;28;20494;-79
2022/06/22 03:06:42;;;;;;;11.00;10.10;;;21.50;99.90;;;;;;5043237;28;20466;-81
2022/06/22 03:09:09;;;;;;;12.20;11.07;;;21.60;99.90;;;;;;5043833;28;20478;-81
2022/06/22 03:11:40;;;;;;;11.17;10.27;;;21.60;99.90;;;;;;5042327;28;20448;-81
2022/06/22 03:14:18;;;;;;;13.50;12.40;;;21.70;99.90;;;;;;5043742;28;20458;-81
2022/06/22 03:16:49;;;;;;;12.93;11.87;;;21.70;99.90;;;;;;5043686;28;20447;-81
2022/06/22 03:19:20;;;;;;;10.97;10.07;;;21.60;99.90;;;;;;5042724;28;20472;-81
2022/06/22 03:21:48;;;;;;;11.00;10.20;;;21.70;99.90;;;;;;5042992;28;20455;-81
2022/06/22 03:24:26;;;;;;;12.60;11.60;;;21.70;99.90;;;;;;5046426;28;20486;-81
2022/06/22 03:26:56;;;;;;;12.97;11.97;;;21.60;99.90;;;;;;5047313;28;20447;-81
2022/06/22 03:29:33;;;;;;;12.27;11.37;;;21.60;99.90;;;;;;5046020;28;20477;-81
2022/06/22 03:32:04;;;;;;;13.07;12.00;;;21.60;99.90;;;;;;5047597;28;20449;-81
2022/06/22 03:34:36;;;;;;;11.20;10.40;;;21.50;99.90;;;;;;5046607;28;20450;-81
2022/06/22 03:37:09;;;;;;;11.20;10.30;;;21.40;99.90;;;;;;5047613;28;20452;-80
2022/06/22 03:39:41;;;;;;;12.53;11.50;;;21.30;99.90;;;;;;5043807;28;20479;-81
2022/06/22 03:42:14;;;;;;;12.57;11.47;;;21.40;99.90;;;;;;5041953;28;20460;-81
2022/06/22 03:44:47;;;;;;;13.90;12.63;;;21.40;99.90;;;;;;5041559;28;20446;-81
2022/06/22 03:47:18;;;;;;;12.50;11.57;;;21.40;99.90;;;;;;5041931;28;20436;-81
2022/06/22 03:49:53;;;;;;;12.67;11.60;;;21.50;99.90;;;;;;5041575;28;20477;-80
2022/06/22 03:52:27;;;;;;;13.23;12.13;;;21.50;99.90;;;;;;5041236;28;20455;-81
2022/06/22 03:55:01;;;;;;;11.80;10.90;;;21.50;99.90;;;;;;5041221;28;20512;-80
2022/06/22 03:57:32;;;;;;;12.70;11.90;;;21.40;99.90;;;;;;5041303;28;20499;-80
2022/06/22 04:00:00;;;;;;;12.17;11.17;;;21.50;99.90;;;;;;5041101;28;20476;-81
2022/06/22 04:02:28;;;;;;;12.87;11.87;;;21.50;99.90;;;;;;5041741;28;20536;-81
2022/06/22 04:04:58;;;;;;;13.27;12.17;;;21.50;99.90;;;;;;5021393;28;20458;-80
2022/06/22 04:07:29;;;;;;;11.87;10.77;;;21.50;99.90;;;;;;5021179;28;20451;-81
2022/06/22 04:09:57;;;;;;;13.07;11.97;;;21.20;99.90;;;;;;5040211;28;20485;-80
2022/06/22 04:12:30;;;;;;;14.00;12.83;;;21.00;99.90;;;;;;5041870;28;20451;-80
2022/06/22 04:15:08;;;;;;;13.27;12.20;;;20.90;99.90;;;;;;5041444;28;20989;-80
2022/06/22 04:17:38;;;;;;;13.33;12.33;;;21.00;99.90;;;;;;5041356;28;20488;-81
2022/06/22 04:20:12;;;;;;;13.93;12.67;;;21.00;99.90;;;;;;5041183;28;20481;-81
2022/06/22 04:22:43;;;;;;;12.27;11.27;;;20.90;99.90;;;;;;5040758;28;20971;-81
2022/06/22 04:25:16;;;;;;;12.80;11.90;;;21.00;99.90;;;;;;5041831;28;20458;-81
2022/06/22 04:27:48;;;;;;;12.07;11.03;;;21.10;99.90;;;;;;5041818;28;20504;-81
2022/06/22 04:30:20;;;;;;;12.93;12.00;;;21.20;99.90;;;;;;5040718;28;20454;-81
2022/06/22 04:32:55;;;;;;;12.50;11.33;;;21.30;99.90;;;;;;5040085;28;20449;-81
2022/06/22 04:35:32;;;;;;;13.47;12.37;;;21.50;99.90;;;;;;5041217;28;20450;-81
2022/06/22 04:38:04;;;;;;;13.67;12.67;;;21.50;99.90;;;;;;5040710;28;20462;-81
2022/06/22 04:40:36;;;;;;;12.03;11.13;;;21.60;99.90;;;;;;5039985;28;20446;-81
2022/06/22 04:43:05;;;;;;;11.50;10.60;;;21.80;99.90;;;;;;5041496;28;20479;-80
2022/06/22 04:45:37;;;;;;;13.80;12.70;;;21.80;99.90;;;;;;5040535;28;20454;-81
2022/06/22 04:48:09;;;;;;;13.30;12.00;;;21.90;99.90;;;;;;5041471;28;20451;-81
2022/06/22 04:50:38;;;;;;;12.30;11.40;;;21.90;99.90;;;;;;5039568;28;21145;-81
2022/06/22 04:53:05;;;;;;;13.87;12.63;;;22.00;99.90;;;;;;5040191;28;20815;-80
2022/06/22 04:55:38;;;;;;;10.90;10.20;;;22.10;99.90;;;;;;5039919;28;20455;-80
2022/06/22 04:58:16;;;;;;;11.70;10.90;;;22.20;99.90;;;;;;5041145;28;20470;-80
2022/06/22 05:00:47;;;;;;;12.77;11.77;;;22.20;99.90;;;;;;5042155;28;20459;-80
2022/06/22 05:03:15;;;;;;;13.17;11.97;;;22.30;99.90;;;;;;5043507;28;20483;-79
2022/06/22 05:05:42;;;;;;;12.30;11.30;;;22.40;99.90;;;;;;5042738;28;20452;-80
2022/06/22 05:08:17;;;;;;;12.47;11.57;;;22.40;99.90;;;;;;5042659;28;20468;-79
2022/06/22 05:10:49;;;;;;;13.00;12.10;;;22.20;99.90;;;;;;5042412;28;20455;-81
2022/06/22 05:13:17;;;;;;;12.40;11.33;;;22.10;99.90;;;;;;5039984;28;20452;-81
2022/06/22 05:15:49;;;;;;;11.00;10.10;;;22.10;99.90;;;;;;5040323;28;20453;-80
2022/06/22 05:18:21;;;;;;;12.07;11.27;;;22.20;99.90;;;;;;5039733;28;20470;-80
2022/06/22 05:20:52;;;;;;;12.03;11.13;;;22.20;99.90;;;;;;5040802;28;20497;-79
2022/06/22 05:23:22;;;;;;;12.17;11.17;;;22.20;99.90;;;;;;5044218;28;20559;-80
2022/06/22 05:25:51;;;;;;;13.43;12.13;;;22.40;99.90;;;;;;5045143;28;20453;-80
2022/06/22 05:28:28;;;;;;;12.77;11.77;;;22.60;99.90;;;;;;5044120;28;20469;-80
2022/06/22 05:31:02;;;;;;;13.23;12.13;;;22.70;99.90;;;;;;5044187;28;21050;-80
2022/06/22 05:33:30;;;;;;;11.27;10.57;;;22.90;99.90;;;;;;5045299;28;20598;-79
2022/06/22 05:36:03;;;;;;;12.07;11.17;;;23.10;99.90;;;;;;5043204;28;20457;-80
2022/06/22 05:38:31;;;;;;;12.23;11.23;;;23.30;99.90;;;;;;5039360;28;20487;-81
2022/06/22 05:41:04;;;;;;;12.53;11.50;;;23.50;99.90;;;;;;5039239;28;20463;-79
2022/06/22 05:43:32;;;;;;;10.80;10.10;;;23.60;99.90;;;;;;5039113;28;20989;-81
2022/06/22 05:46:02;;;;;;;11.60;10.70;;;23.80;99.90;;;;;;5038561;28;20453;-83
2022/06/22 05:48:44;;;;;;;11.60;10.50;;;23.80;99.90;;;;;;5042500;28;20479;-82
2022/06/22 05:51:34;;;;;;;11.73;10.83;;;23.90;99.90;;;;;;5049411;28;20449;-83
2022/06/22 05:54:14;;;;;;;12.13;11.33;;;24.00;99.90;;;;;;5050316;28;20449;-83
2022/06/22 05:56:52;;;;;;;11.73;10.87;;;24.10;99.90;;;;;;5049472;28;20463;-83
2022/06/22 05:59:43;;;;;;;11.93;10.83;;;23.90;99.90;;;;;;5048282;28;20552;-83
2022/06/22 06:02:23;;;;;;;11.37;10.50;;;23.90;99.90;;;;;;5049912;28;20445;-83
2022/06/22 06:05:05;;;;;;;13.57;12.47;;;23.90;99.90;;;;;;5049396;28;20491;-83
2022/06/22 06:07:37;;;;;;;12.27;11.13;;;24.00;99.90;;;;;;5049485;28;20683;-82
2022/06/22 06:20:49;;;;;;;11.53;10.50;;;23.30;99.90;;;;;;5043851;28;20500;-82
2022/06/22 06:23:21;;;;;;;11.30;10.47;;;23.10;99.90;;;;;;5036700;28;20489;-82
2022/06/22 06:30:33;;;;;;;10.87;10.00;;;22.80;99.90;;;;;;4955474;28;20573;-84
2022/06/22 06:34:18;;;;;;;12.73;11.87;;;22.50;99.90;;;;;;4874825;29;20540;-84
2022/06/22 06:36:54;;;;;;;12.87;11.63;;;22.30;99.90;;;;;;4927324;29;20460;-84
2022/06/22 06:39:28;;;;;;;12.40;11.50;;;22.20;99.90;;;;;;5023786;28;20480;-84
2022/06/22 06:42:04;;;;;;;13.67;12.43;;;22.00;99.90;;;;;;5028992;28;20457;-84
2022/06/22 06:44:34;;;;;;;11.53;10.50;;;22.00;99.90;;;;;;5023781;28;20566;-84
2022/06/22 06:47:16;;;;;;;11.50;10.60;;;21.90;99.90;;;;;;5034417;28;20505;-85
2022/06/22 06:55:45;;;;;;;13.52;12.43;;;21.30;99.90;;;;;;5022306;28;20445;-84
2022/06/22 06:58:18;;;;;;;12.93;11.90;;;21.20;99.90;;;;;;5029722;28;20290;-83
2022/06/22 07:00:47;;;;;;;15.80;14.30;;;21.10;99.90;;;;;;5035436;28;20457;-83
2022/06/22 07:03:19;;;;;;;14.50;13.10;;;21.00;99.90;;;;;;5034430;28;20502;-84
2022/06/22 07:05:47;;;;;;;16.93;15.47;;;20.80;99.90;;;;;;5033602;28;20457;-84
2022/06/22 07:08:18;;;;;;;16.13;14.17;;;20.70;99.90;;;;;;5034834;28;20535;-84
2022/06/22 07:10:52;;;;;;;16.13;14.63;;;20.40;99.90;;;;;;5034523;28;20543;-83
2022/06/22 07:13:25;;;;;;;15.90;14.47;;;20.40;99.90;;;;;;5036068;28;20460;-82
2022/06/22 07:15:56;;;;;;;17.00;15.50;;;20.30;99.90;;;;;;5036939;28;20456;-81
2022/06/22 07:18:27;;;;;;;17.43;15.93;;;20.30;99.90;;;;;;5038374;28;20464;-81
2022/06/22 07:21:00;;;;;;;19.03;17.47;;;20.30;99.90;;;;;;5038225;28;20453;-81
2022/06/22 07:23:32;;;;;;;17.93;16.27;;;20.20;99.90;;;;;;5038295;28;20449;-81
2022/06/22 07:26:09;;;;;;;17.13;15.73;;;20.20;99.90;;;;;;5037889;28;20461;-81
2022/06/22 07:28:44;;;;;;;17.50;16.07;;;20.10;99.90;;;;;;5038010;28;20475;-80
2022/06/22 07:31:20;;;;;;;16.57;15.33;;;20.10;99.90;;;;;;5038427;28;20450;-81
2022/06/22 07:33:51;;;;;;;18.97;17.37;;;20.10;99.90;;;;;;5038242;28;20530;-81
2022/06/22 07:36:24;;;;;;;21.63;19.83;;;20.20;99.90;;;;;;5037959;28;20813;-83
2022/06/22 07:38:57;;;;;;;20.43;18.73;;;20.30;99.90;;;;;;5037993;28;20568;-81
2022/06/22 07:41:29;;;;;;;19.27;17.77;;;20.40;99.90;;;;;;5038631;28;20461;-81
2022/06/22 07:43:59;;;;;;;15.53;14.30;;;20.60;99.90;;;;;;5038277;28;20503;-81
2022/06/22 07:46:33;;;;;;;17.00;15.37;;;20.80;99.90;;;;;;5037952;28;20543;-81
2022/06/22 07:49:07;;;;;;;17.93;16.33;;;20.90;99.90;;;;;;5037829;28;20473;-81
2022/06/22 07:51:36;;;;;;;17.17;15.57;;;21.20;99.90;;;;;;5037123;28;20553;-81
2022/06/22 07:54:06;;;;;;;14.67;13.47;;;21.50;99.90;;;;;;5038522;28;20788;-81
2022/06/22 07:56:46;;;;;;;15.03;13.73;;;21.80;99.90;;;;;;5038575;28;20454;-81
2022/06/22 07:59:18;;;;;;;11.60;10.80;;;22.10;99.90;;;;;;5037829;28;20477;-81
2022/06/22 08:01:48;;;;;;;15.07;13.87;;;22.30;99.90;;;;;;5037810;28;20465;-81
2022/06/22 08:04:21;;;;;;;12.07;11.17;;;22.60;99.90;;;;;;5038630;28;20483;-81
2022/06/22 08:06:53;;;;;;;13.73;12.47;;;22.70;99.90;;;;;;5038224;28;20460;-81
2022/06/22 08:09:24;;;;;;;13.77;12.67;;;22.90;99.90;;;;;;5040727;28;20814;-81
2022/06/22 08:11:59;;;;;;;13.30;12.30;;;23.10;99.90;;;;;;5041804;28;20455;-81
2022/06/22 08:14:33;;;;;;;13.00;12.00;;;23.20;99.90;;;;;;5041165;28;20452;-81
2022/06/22 08:17:05;;;;;;;13.43;12.30;;;23.30;99.90;;;;;;5042127;28;20440;-81
2022/06/22 08:19:33;;;;;;;13.40;12.23;;;23.50;99.90;;;;;;5041176;28;20468;-81
2022/06/22 08:22:06;;;;;;;12.20;11.17;;;23.60;99.90;;;;;;5041188;28;20958;-81
2022/06/22 08:24:40;;;;;;;11.43;10.60;;;23.40;99.90;;;;;;5042077;28;20494;-81
2022/06/22 08:27:13;;;;;;;11.60;10.83;;;23.50;99.90;;;;;;5041912;28;20484;-81
2022/06/22 08:29:40;;;;;;;12.50;11.50;;;23.50;99.90;;;;;;5040891;28;20465;-81
2022/06/22 08:32:12;;;;;;;11.40;10.50;;;23.60;99.90;;;;;;5041248;28;20458;-81
2022/06/22 08:34:43;;;;;;;12.23;11.03;;;23.70;99.90;;;;;;5040699;28;20448;-81
2022/06/22 08:37:17;;;;;;;12.60;11.10;;;23.70;99.90;;;;;;5040952;28;20449;-81
2022/06/22 08:39:50;;;;;;;10.83;9.90;;;23.70;99.90;;;;;;5041039;28;20476;-81
2022/06/22 08:42:29;;;;;;;12.90;11.87;;;23.60;99.90;;;;;;5040810;28;20458;-81
2022/06/22 08:45:15;;;;;;;12.63;11.33;;;23.70;99.90;;;;;;5040472;28;20488;-81
2022/06/22 08:48:18;;;;;;;12.57;11.67;;;23.60;99.90;;;;;;5041090;28;20518;-81
2022/06/22 08:51:03;;;;;;;14.30;13.20;;;23.70;99.90;;;;;;5029995;28;20460;-81
2022/06/22 08:53:39;;;;;;;11.73;10.77;;;23.60;99.90;;;;;;5041218;28;20457;-81
2022/06/22 08:56:18;;;;;;;11.50;10.50;;;23.70;99.90;;;;;;5040817;28;20448;-81
2022/06/22 08:59:21;;;;;;;13.03;11.80;;;23.90;99.90;;;;;;5040897;28;20471;-81
2022/06/22 09:01:58;;;;;;;13.07;12.17;;;23.70;99.90;;;;;;5040597;28;20449;-82
2022/06/22 09:05:01;;;;;;;12.67;11.70;;;23.80;99.90;;;;;;5041063;28;21023;-81
2022/06/22 09:07:41;;;;;;;13.70;12.63;;;23.90;99.90;;;;;;5036766;28;20537;-81
2022/06/22 09:10:41;;;;;;;12.80;11.90;;;23.80;99.90;;;;;;5040308;28;20983;-81
2022/06/22 09:13:27;;;;;;;13.30;12.30;;;23.80;99.90;;;;;;5040231;28;20445;-81
2022/06/22 09:16:19;;;;;;;14.13;13.20;;;23.60;99.90;;;;;;5040255;28;20448;-81
2022/06/22 09:19:08;;;;;;;13.60;12.70;;;23.50;99.90;;;;;;5040705;28;20472;-81
2022/06/22 09:21:49;;;;;;;14.03;12.90;;;23.50;99.90;;;;;;5040193;28;21004;-82
2022/06/22 09:24:21;;;;;;;14.47;13.37;;;23.30;99.90;;;;;;5040033;28;20496;-82
2022/06/22 09:27:02;;;;;;;13.67;12.47;;;23.40;99.90;;;;;;5040606;28;20459;-81
2022/06/22 09:29:44;;;;;;;15.03;13.77;;;23.40;99.90;;;;;;5040264;28;20497;-82
2022/06/22 09:32:33;;;;;;;14.23;13.03;;;23.30;99.90;;;;;;5039866;28;20460;-82
2022/06/22 09:35:25;;;;;;;13.50;12.47;;;23.10;99.90;;;;;;5040604;28;20456;-82
2022/06/22 09:38:12;;;;;;;15.80;14.30;;;23.00;99.90;;;;;;5017407;28;20451;-82
2022/06/22 09:40:54;;;;;;;14.43;13.33;;;22.70;99.90;;;;;;5069058;22;20898;-87
2022/06/22 09:43:54;;;;;;;15.87;14.60;;;22.60;99.90;;;;;;5047194;28;20490;-87
2022/06/22 09:46:39;;;;;;;14.07;13.03;;;22.50;99.90;;;;;;5049040;28;20490;-88
2022/06/22 09:49:46;;;;;;;12.53;11.63;;;22.50;99.90;;;;;;5044768;28;20470;-87
2022/06/22 09:52:52;;;;;;;13.67;12.73;;;22.70;99.90;;;;;;5046411;28;20464;-88
2022/06/22 09:58:47;;;;;;;13.87;12.73;;;23.00;99.90;;;;;;5046266;28;20491;-87
2022/06/22 10:01:25;;;;;;;15.23;13.87;;;22.80;99.90;;;;;;5046786;28;20500;-87
2022/06/22 10:04:24;;;;;;;13.07;11.60;;;22.70;99.90;;;;;;5047423;28;20491;-85
2022/06/22 10:07:06;;;;;;;14.10;13.00;;;22.70;99.90;;;;;;5047140;28;20495;-88
2022/06/22 10:09:53;;;;;;;16.40;14.93;;;22.60;99.90;;;;;;5046287;28;20903;-86
2022/06/22 10:12:54;;;;;;;16.27;15.13;;;22.50;99.90;;;;;;5046885;28;20432;-89
2022/06/22 10:15:47;;;;;;;15.53;14.33;;;22.70;99.90;;;;;;5046543;28;20464;-86
2022/06/22 10:18:33;;;;;;;15.53;14.13;;;22.80;99.90;;;;;;5047240;28;20949;-87
2022/06/22 10:21:11;;;;;;;14.33;13.13;;;22.70;99.90;;;;;;5047028;28;20437;-87
2022/06/22 10:23:55;;;;;;;14.67;13.37;;;22.70;99.90;;;;;;5046965;28;20498;-87
2022/06/22 10:26:36;;;;;;;15.53;14.20;;;22.70;99.90;;;;;;5047532;28;20513;-85
2022/06/22 10:29:48;;;;;;;16.00;14.90;;;22.70;99.90;;;;;;5047137;28;20481;-87
2022/06/22 10:33:02;;;;;;;16.57;15.33;;;22.50;99.90;;;;;;5045444;28;21032;-88
2022/06/22 10:35:48;;;;;;;15.77;14.67;;;22.20;99.90;;;;;;5027708;28;20464;-85
2022/06/22 10:38:27;;;;;;;15.70;14.40;;;22.30;99.90;;;;;;5047414;28;20455;-84
2022/06/22 10:47:51;;;;;;;15.30;14.10;;;21.70;99.90;;;;;;5047184;28;20448;-86
2022/06/22 10:50:37;;;;;;;14.87;13.53;;;21.80;99.90;;;;;;5046926;28;20490;-86
2022/06/22 10:53:32;;;;;;;15.60;14.20;;;21.40;99.90;;;;;;5045723;28;20457;-86
2022/06/22 10:56:05;;;;;;;15.43;14.27;;;21.10;99.90;;;;;;5046859;28;20445;-86
2022/06/22 10:58:46;;;;;;;15.90;14.50;;;21.10;99.90;;;;;;5046366;28;20458;-87
2022/06/22 11:01:36;;;;;;;14.67;13.50;;;21.20;99.90;;;;;;5046460;28;20454;-86
2022/06/22 11:04:45;;;;;;;15.90;14.60;;;21.30;99.90;;;;;;5046446;28;20517;-86
2022/06/22 11:07:40;;;;;;;18.30;16.67;;;21.50;99.90;;;;;;5042494;28;20457;-87
2022/06/22 11:10:22;;;;;;;15.97;14.47;;;21.60;99.90;;;;;;5046028;28;20471;-87
2022/06/22 11:13:11;;;;;;;18.00;16.37;;;21.60;99.90;;;;;;5046383;28;20448;-87
2022/06/22 11:16:10;;;;;;;18.17;16.67;;;21.70;99.90;;;;;;5045353;28;20438;-88
2022/06/22 11:19:06;;;;;;;15.73;14.33;;;21.90;99.90;;;;;;5044399;28;20839;-85
2022/06/22 11:21:56;;;;;;;16.97;15.57;;;22.00;99.90;;;;;;5045847;28;20455;-87
2022/06/22 11:24:53;;;;;;;15.47;14.27;;;22.10;99.90;;;;;;5046068;28;20499;-87
2022/06/22 11:33:38;;;;;;;13.40;12.20;;;22.60;99.90;;;;;;5035646;28;21063;-87
2022/06/22 11:36:15;;;;;;;14.10;12.77;;;22.60;99.90;;;;;;5035054;28;20444;-88
2022/06/22 11:39:06;;;;;;;13.13;12.03;;;22.50;99.90;;;;;;5035655;28;20455;-87
2022/06/22 11:41:56;;;;;;;14.03;12.83;;;22.50;99.90;;;;;;5034852;28;20901;-87
2022/06/22 11:45:49;;;;;;;15.20;13.07;;;22.40;99.90;;;;;;5037826;28;20953;-87
2022/06/22 11:47:49;;;;;;;12.50;11.53;;;22.10;99.90;;;;;;5038926;28;20518;-88
2022/06/22 11:50:25;;;;;;;14.13;12.83;;;22.10;99.90;;;;;;5039147;28;20468;-87
2022/06/22 11:53:07;;;;;;;13.60;12.50;;;22.20;99.90;;;;;;5038683;28;20452;-87
2022/06/22 11:55:40;;;;;;;14.23;12.57;;;22.10;99.90;;;;;;5039042;28;20453;-87
2022/06/22 11:58:25;;;;;;;12.20;10.93;;;22.20;99.90;;;;;;5038036;28;20455;-87
2022/06/22 12:01:13;;;;;;;11.33;10.37;;;22.20;99.90;;;;;;5038463;28;20478;-87
2022/06/22 12:41:42;;;;;;;8.83;6.20;;;22.90;99.90;;;;;;4789886;29;20967;-85
2022/06/22 12:44:39;;;;;;;8.33;6.20;;;22.80;99.90;;;;;;4859739;29;20925;-85
2022/06/22 12:47:25;;;;;;;7.00;6.23;;;22.80;99.90;;;;;;4942682;28;20448;-85
2022/06/22 12:50:31;;;;;;;9.07;6.30;;;22.80;99.90;;;;;;5037981;28;20474;-85
2022/06/22 12:53:12;;;;;;;9.23;5.50;;;22.80;99.90;;;;;;5038122;28;20494;-86
2022/06/22 12:56:01;;;;;;;8.73;6.20;;;22.90;99.90;;;;;;5037399;28;20489;-85
2022/06/22 12:59:16;;;;;;;10.80;6.93;;;22.70;99.90;;;;;;5037491;28;20538;-85
2022/06/22 13:06:08;;;;;;;8.33;5.97;;;22.80;99.90;;;;;;5048894;28;20481;-85
2022/06/22 13:15:32;;;;;;;10.40;7.27;;;23.00;99.90;;;;;;5036486;28;20511;-85
2022/06/22 13:18:24;;;;;;;7.33;5.60;;;23.10;99.90;;;;;;5037411;28;20467;-85
2022/06/22 13:21:05;;;;;;;6.97;5.80;;;23.20;99.90;;;;;;5036754;28;20448;-84
2022/06/22 13:23:43;;;;;;;6.60;5.77;;;23.30;99.90;;;;;;5036956;28;20484;-85
2022/06/22 13:32:56;;;;;;;9.70;5.73;;;23.60;99.90;;;;;;5036434;28;20441;-85
2022/06/22 13:35:29;;;;;;;7.13;5.30;;;23.80;99.90;;;;;;5041501;28;20448;-85
2022/06/22 13:38:09;;;;;;;8.03;5.80;;;23.90;99.90;;;;;;5040975;28;20460;-85
2022/06/22 13:40:43;;;;;;;10.33;4.63;;;23.90;99.90;;;;;;5040629;28;20476;-84
2022/06/22 13:43:28;;;;;;;11.30;5.20;;;24.10;99.90;;;;;;5041006;28;20441;-85
2022/06/22 13:46:13;;;;;;;10.83;6.63;;;24.40;99.90;;;;;;5040443;28;20485;-85
2022/06/22 13:48:46;;;;;;;10.43;4.90;;;24.80;99.90;;;;;;5039672;28;20438;-85
2022/06/22 13:51:37;;;;;;;9.00;5.33;;;25.10;99.90;;;;;;5039356;28;20455;-85
2022/06/22 13:54:39;;;;;;;8.57;5.33;;;25.50;99.90;;;;;;5050106;28;20937;-85
2022/06/22 13:57:13;;;;;;;5.77;4.57;;;25.90;99.90;;;;;;5030288;28;20472;-85
2022/06/22 13:59:45;;;;;;;7.53;4.57;;;25.90;99.90;;;;;;5039188;28;20479;-85
2022/06/22 14:02:32;;;;;;;8.00;5.90;;;26.20;99.90;;;;;;5037177;28;20542;-85
2022/06/22 14:05:02;;;;;;;9.40;6.57;;;26.30;99.90;;;;;;5037320;28;20437;-85
2022/06/22 14:07:32;;;;;;;7.83;5.60;;;26.40;99.90;;;;;;5036446;28;20464;-85
2022/06/22 14:10:11;;;;;;;13.63;6.20;;;26.60;99.90;;;;;;5035983;28;20467;-85
2022/06/22 14:12:43;;;;;;;9.93;6.00;;;26.70;99.90;;;;;;5035856;28;20887;-85
2022/06/22 14:15:25;;;;;;;11.00;5.40;;;27.00;99.90;;;;;;5035575;28;20459;-85
2022/06/22 14:17:57;;;;;;;9.13;5.77;;;27.10;99.90;;;;;;5035611;28;20461;-85
2022/06/22 14:20:31;;;;;;;11.53;5.87;;;27.20;99.90;;;;;;5035148;28;20985;-85
2022/06/22 14:23:02;;;;;;;8.57;4.83;;;27.30;99.90;;;;;;5035787;28;20944;-85
2022/06/22 14:25:43;;;;;;;6.90;4.33;;;27.40;99.90;;;;;;5036871;28;20486;-85
2022/06/22 14:28:16;;;;;;;12.37;4.30;;;27.20;99.10;;;;;;5036478;28;20457;-85
2022/06/22 14:30:54;;;;;;;8.00;5.07;;;27.20;99.90;;;;;;5036720;28;20476;-85
2022/06/22 14:33:45;;;;;;;9.33;5.40;;;27.20;99.90;;;;;;5037490;28;20541;-85
2022/06/22 14:36:22;;;;;;;7.73;4.90;;;26.90;99.90;;;;;;5037331;28;20805;-85
2022/06/22 14:39:02;;;;;;;10.90;6.10;;;26.80;99.90;;;;;;5037127;28;20510;-85
2022/06/22 14:41:41;;;;;;;8.87;4.90;;;26.70;99.90;;;;;;5043764;28;20443;-85
2022/06/22 14:44:22;;;;;;;10.33;5.53;;;26.70;99.90;;;;;;5041553;28;20456;-85
2022/06/22 14:47:05;;;;;;;10.70;7.00;;;26.70;99.90;;;;;;5037880;28;20487;-85
2022/06/22 14:49:39;;;;;;;10.83;5.50;;;26.30;99.90;;;;;;5037923;28;20479;-85
2022/06/22 14:52:12;;;;;;;8.50;5.00;;;26.30;99.90;;;;;;5039213;28;20441;-85
2022/06/22 14:54:46;;;;;;;10.43;5.93;;;26.20;99.90;;;;;;5042700;28;20436;-85
2022/06/22 14:57:23;;;;;;;10.07;5.93;;;26.10;99.90;;;;;;5042129;28;20967;-85
2022/06/22 15:00:17;;;;;;;11.30;5.80;;;25.80;99.90;;;;;;5041745;28;20466;-85
2022/06/22 15:02:51;;;;;;;7.37;4.83;;;25.60;99.90;;;;;;5041109;28;20460;-86
2022/06/22 15:05:29;;;;;;;8.70;5.23;;;25.70;99.90;;;;;;5038257;28;20463;-85
2022/06/22 15:08:02;;;;;;;11.43;5.90;;;25.70;99.90;;;;;;5038686;28;20512;-85